sensor_id;sensor_type;location;lat;lon;timestamp;temperature;humidity
1447;DHT22;717;51.522;7.266;2022-09-21T00:01:53;15.60;97.40
1447;DHT22;717;51.522;7.266;2022-09-21T00:04:20;15.60;97.50
1447;DHT22;717;51.522;7.266;2022-09-21T00:06:47;15.50;97.50
1447;DHT22;717;51.522;7.266;2022-09-21T00:09:15;15.50;97.60
1447;DHT22;717;51.522;7.266;2022-09-21T00:11:42;15.50;97.70
1447;DHT22;717;51.522;7.266;2022-09-21T00:14:11;15.50;98.10
1447;DHT22;717;51.522;7.266;2022-09-21T00:16:38;15.50;97.70
1447;DHT22;717;51.522;7.266;2022-09-21T00:19:05;15.50;97.70
1447;DHT22;717;51.522;7.266;2022-09-21T00:21:32;15.50;97.70
1447;DHT22;717;51.522;7.266;2022-09-21T00:24:00;15.50;97.60
1447;DHT22;717;51.522;7.266;2022-09-21T00:26:29;15.50;97.70
1447;DHT22;717;51.522;7.266;2022-09-21T00:28:58;15.50;98.10
1447;DHT22;717;51.522;7.266;2022-09-21T00:31:25;15.50;97.80
1447;DHT22;717;51.522;7.266;2022-09-21T00:33:53;15.40;97.80
1447;DHT22;717;51.522;7.266;2022-09-21T00:36:21;15.40;97.80
1447;DHT22;717;51.522;7.266;2022-09-21T00:38:50;15.40;97.80
1447;DHT22;717;51.522;7.266;2022-09-21T00:41:17;15.40;97.80
1447;DHT22;717;51.522;7.266;2022-09-21T00:43:47;15.40;97.80
1447;DHT22;717;51.522;7.266;2022-09-21T00:46:21;15.40;97.70
1447;DHT22;717;51.522;7.266;2022-09-21T00:48:52;15.40;97.70
1447;DHT22;717;51.522;7.266;2022-09-21T00:51:20;15.40;97.70
1447;DHT22;717;51.522;7.266;2022-09-21T00:53:50;15.30;97.60
1447;DHT22;717;51.522;7.266;2022-09-21T00:56:18;15.30;97.60
1447;DHT22;717;51.522;7.266;2022-09-21T00:58:49;15.30;97.60
1447;DHT22;717;51.522;7.266;2022-09-21T01:01:17;15.30;97.60
1447;DHT22;717;51.522;7.266;2022-09-21T01:03:45;15.30;97.60
1447;DHT22;717;51.522;7.266;2022-09-21T01:06:14;15.30;97.50
1447;DHT22;717;51.522;7.266;2022-09-21T01:08:43;15.30;97.50
1447;DHT22;717;51.522;7.266;2022-09-21T01:11:22;15.30;97.60
1447;DHT22;717;51.522;7.266;2022-09-21T01:14:08;15.20;97.60
1447;DHT22;717;51.522;7.266;2022-09-21T01:16:44;15.20;97.60
1447;DHT22;717;51.522;7.266;2022-09-21T01:19:27;15.20;97.50
1447;DHT22;717;51.522;7.266;2022-09-21T01:22:08;15.20;97.50
1447;DHT22;717;51.522;7.266;2022-09-21T01:24:49;15.20;97.60
1447;DHT22;717;51.522;7.266;2022-09-21T01:27:41;15.20;97.50
1447;DHT22;717;51.522;7.266;2022-09-21T01:30:15;15.20;97.60
1447;DHT22;717;51.522;7.266;2022-09-21T01:32:47;15.20;97.50
1447;DHT22;717;51.522;7.266;2022-09-21T01:35:19;15.20;97.50
1447;DHT22;717;51.522;7.266;2022-09-21T01:37:51;15.20;97.60
1447;DHT22;717;51.522;7.266;2022-09-21T01:40:22;15.10;97.50
1447;DHT22;717;51.522;7.266;2022-09-21T01:42:53;15.10;97.50
1447;DHT22;717;51.522;7.266;2022-09-21T01:45:28;15.10;97.50
1447;DHT22;717;51.522;7.266;2022-09-21T01:47:58;15.10;97.60
1447;DHT22;717;51.522;7.266;2022-09-21T01:50:28;15.10;97.60
1447;DHT22;717;51.522;7.266;2022-09-21T01:52:59;15.10;97.60
1447;DHT22;717;51.522;7.266;2022-09-21T01:55:31;15.10;97.50
1447;DHT22;717;51.522;7.266;2022-09-21T01:58:08;15.10;97.50
1447;DHT22;717;51.522;7.266;2022-09-21T02:00:39;15.10;97.50
1447;DHT22;717;51.522;7.266;2022-09-21T02:03:09;15.10;97.50
1447;DHT22;717;51.522;7.266;2022-09-21T02:05:37;15.00;97.50
1447;DHT22;717;51.522;7.266;2022-09-21T02:08:05;15.10;97.50
1447;DHT22;717;51.522;7.266;2022-09-21T02:10:36;15.00;97.50
1447;DHT22;717;51.522;7.266;2022-09-21T02:13:05;15.00;97.50
1447;DHT22;717;51.522;7.266;2022-09-21T02:15:42;15.00;97.50
1447;DHT22;717;51.522;7.266;2022-09-21T02:18:14;15.00;97.50
1447;DHT22;717;51.522;7.266;2022-09-21T02:20:48;15.00;97.50
1447;DHT22;717;51.522;7.266;2022-09-21T02:23:22;15.00;97.50
1447;DHT22;717;51.522;7.266;2022-09-21T02:25:54;15.00;97.50
1447;DHT22;717;51.522;7.266;2022-09-21T02:28:30;15.00;97.50
1447;DHT22;717;51.522;7.266;2022-09-21T02:31:08;15.00;97.50
1447;DHT22;717;51.522;7.266;2022-09-21T02:33:42;14.90;97.50
1447;DHT22;717;51.522;7.266;2022-09-21T02:36:18;14.90;97.50
1447;DHT22;717;51.522;7.266;2022-09-21T02:38:51;14.90;97.50
1447;DHT22;717;51.522;7.266;2022-09-21T02:41:23;14.90;97.50
1447;DHT22;717;51.522;7.266;2022-09-21T02:43:57;14.90;97.60
1447;DHT22;717;51.522;7.266;2022-09-21T02:46:31;14.90;97.60
1447;DHT22;717;51.522;7.266;2022-09-21T02:49:02;14.90;97.60
1447;DHT22;717;51.522;7.266;2022-09-21T02:51:33;14.90;97.60
1447;DHT22;717;51.522;7.266;2022-09-21T02:54:03;14.90;97.60
1447;DHT22;717;51.522;7.266;2022-09-21T02:56:32;14.90;97.60
1447;DHT22;717;51.522;7.266;2022-09-21T02:59:03;14.90;97.60
1447;DHT22;717;51.522;7.266;2022-09-21T03:01:32;14.90;97.60
1447;DHT22;717;51.522;7.266;2022-09-21T03:04:00;14.80;97.60
1447;DHT22;717;51.522;7.266;2022-09-21T03:06:27;14.80;97.60
1447;DHT22;717;51.522;7.266;2022-09-21T03:08:54;14.80;97.60
1447;DHT22;717;51.522;7.266;2022-09-21T03:11:21;14.80;97.60
1447;DHT22;717;51.522;7.266;2022-09-21T03:13:48;14.80;97.60
1447;DHT22;717;51.522;7.266;2022-09-21T03:16:15;14.80;97.70
1447;DHT22;717;51.522;7.266;2022-09-21T03:18:44;14.80;97.70
1447;DHT22;717;51.522;7.266;2022-09-21T03:21:11;14.80;97.70
1447;DHT22;717;51.522;7.266;2022-09-21T03:23:38;14.80;97.70
1447;DHT22;717;51.522;7.266;2022-09-21T03:26:05;14.80;97.70
1447;DHT22;717;51.522;7.266;2022-09-21T03:28:33;14.80;97.70
1447;DHT22;717;51.522;7.266;2022-09-21T03:31:00;14.80;97.70
1447;DHT22;717;51.522;7.266;2022-09-21T03:33:27;14.80;97.70
1447;DHT22;717;51.522;7.266;2022-09-21T03:35:55;14.80;97.70
1447;DHT22;717;51.522;7.266;2022-09-21T03:38:22;14.80;97.60
1447;DHT22;717;51.522;7.266;2022-09-21T03:40:49;14.70;97.60
1447;DHT22;717;51.522;7.266;2022-09-21T03:43:17;14.70;97.60
1447;DHT22;717;51.522;7.266;2022-09-21T03:45:44;14.70;97.50
1447;DHT22;717;51.522;7.266;2022-09-21T03:48:12;14.70;97.40
1447;DHT22;717;51.522;7.266;2022-09-21T03:50:40;14.70;97.40
1447;DHT22;717;51.522;7.266;2022-09-21T03:53:08;14.70;97.40
1447;DHT22;717;51.522;7.266;2022-09-21T03:55:36;14.70;97.40
1447;DHT22;717;51.522;7.266;2022-09-21T03:58:04;14.70;97.40
1447;DHT22;717;51.522;7.266;2022-09-21T04:00:32;14.70;97.40
1447;DHT22;717;51.522;7.266;2022-09-21T04:02:59;14.60;97.40
1447;DHT22;717;51.522;7.266;2022-09-21T04:05:26;14.60;97.40
1447;DHT22;717;51.522;7.266;2022-09-21T04:07:54;14.60;97.40
1447;DHT22;717;51.522;7.266;2022-09-21T04:10:23;14.60;97.40
1447;DHT22;717;51.522;7.266;2022-09-21T04:12:55;14.60;97.40
1447;DHT22;717;51.522;7.266;2022-09-21T04:15:22;14.60;97.40
1447;DHT22;717;51.522;7.266;2022-09-21T04:17:50;14.60;97.40
1447;DHT22;717;51.522;7.266;2022-09-21T04:20:17;14.60;97.40
1447;DHT22;717;51.522;7.266;2022-09-21T04:22:45;14.60;97.30
1447;DHT22;717;51.522;7.266;2022-09-21T04:25:13;14.60;97.30
1447;DHT22;717;51.522;7.266;2022-09-21T04:27:41;14.50;97.30
1447;DHT22;717;51.522;7.266;2022-09-21T04:30:10;14.50;97.30
1447;DHT22;717;51.522;7.266;2022-09-21T04:32:38;14.50;97.20
1447;DHT22;717;51.522;7.266;2022-09-21T04:35:05;14.50;97.20
1447;DHT22;717;51.522;7.266;2022-09-21T04:37:31;14.50;97.20
1447;DHT22;717;51.522;7.266;2022-09-21T04:39:58;14.50;97.20
1447;DHT22;717;51.522;7.266;2022-09-21T04:42:25;14.50;97.20
1447;DHT22;717;51.522;7.266;2022-09-21T04:44:55;14.50;97.20
1447;DHT22;717;51.522;7.266;2022-09-21T04:47:22;14.50;97.20
1447;DHT22;717;51.522;7.266;2022-09-21T04:49:49;14.50;97.20
1447;DHT22;717;51.522;7.266;2022-09-21T04:52:17;14.50;97.30
1447;DHT22;717;51.522;7.266;2022-09-21T04:54:44;14.50;97.30
1447;DHT22;717;51.522;7.266;2022-09-21T04:57:11;14.40;97.30
1447;DHT22;717;51.522;7.266;2022-09-21T04:59:38;14.40;97.30
1447;DHT22;717;51.522;7.266;2022-09-21T05:02:06;14.40;97.40
1447;DHT22;717;51.522;7.266;2022-09-21T05:04:33;14.40;97.30
1447;DHT22;717;51.522;7.266;2022-09-21T05:07:00;14.40;97.30
1447;DHT22;717;51.522;7.266;2022-09-21T05:09:27;14.40;97.30
1447;DHT22;717;51.522;7.266;2022-09-21T05:12:11;14.40;97.30
1447;DHT22;717;51.522;7.266;2022-09-21T05:14:38;14.40;97.40
1447;DHT22;717;51.522;7.266;2022-09-21T05:17:06;14.40;97.40
1447;DHT22;717;51.522;7.266;2022-09-21T05:19:33;14.40;97.40
1447;DHT22;717;51.522;7.266;2022-09-21T05:22:00;14.40;97.40
1447;DHT22;717;51.522;7.266;2022-09-21T05:24:27;14.40;97.40
1447;DHT22;717;51.522;7.266;2022-09-21T05:26:54;14.30;97.40
1447;DHT22;717;51.522;7.266;2022-09-21T05:29:21;14.30;97.50
1447;DHT22;717;51.522;7.266;2022-09-21T05:31:51;14.30;97.50
1447;DHT22;717;51.522;7.266;2022-09-21T05:34:33;14.40;97.50
1447;DHT22;717;51.522;7.266;2022-09-21T05:37:05;14.40;97.60
1447;DHT22;717;51.522;7.266;2022-09-21T05:39:34;14.30;97.60
1447;DHT22;717;51.522;7.266;2022-09-21T05:42:01;14.30;97.60
1447;DHT22;717;51.522;7.266;2022-09-21T05:44:28;14.30;97.60
1447;DHT22;717;51.522;7.266;2022-09-21T05:47:00;14.30;97.60
1447;DHT22;717;51.522;7.266;2022-09-21T05:49:45;14.30;97.60
1447;DHT22;717;51.522;7.266;2022-09-21T05:52:16;14.30;97.70
1447;DHT22;717;51.522;7.266;2022-09-21T05:54:54;14.30;97.70
1447;DHT22;717;51.522;7.266;2022-09-21T05:57:28;14.30;97.70
1447;DHT22;717;51.522;7.266;2022-09-21T06:00:02;14.30;97.70
1447;DHT22;717;51.522;7.266;2022-09-21T06:02:43;14.30;97.70
1447;DHT22;717;51.522;7.266;2022-09-21T06:05:14;14.30;97.70
1447;DHT22;717;51.522;7.266;2022-09-21T06:07:42;14.30;97.70
1447;DHT22;717;51.522;7.266;2022-09-21T06:10:09;14.30;97.70
1447;DHT22;717;51.522;7.266;2022-09-21T06:12:37;14.30;97.80
1447;DHT22;717;51.522;7.266;2022-09-21T06:15:06;14.30;97.80
1447;DHT22;717;51.522;7.266;2022-09-21T06:17:33;14.30;97.90
1447;DHT22;717;51.522;7.266;2022-09-21T06:20:00;14.40;98.00
1447;DHT22;717;51.522;7.266;2022-09-21T06:22:29;14.30;98.10
1447;DHT22;717;51.522;7.266;2022-09-21T06:24:56;14.30;98.10
1447;DHT22;717;51.522;7.266;2022-09-21T06:27:22;14.40;98.30
1447;DHT22;717;51.522;7.266;2022-09-21T06:29:49;14.40;98.30
1447;DHT22;717;51.522;7.266;2022-09-21T06:32:17;14.40;98.40
1447;DHT22;717;51.522;7.266;2022-09-21T06:34:44;14.40;98.40
1447;DHT22;717;51.522;7.266;2022-09-21T06:37:11;14.40;98.50
1447;DHT22;717;51.522;7.266;2022-09-21T06:39:39;14.40;98.60
1447;DHT22;717;51.522;7.266;2022-09-21T06:42:06;14.40;98.70
1447;DHT22;717;51.522;7.266;2022-09-21T06:44:33;14.50;98.70
1447;DHT22;717;51.522;7.266;2022-09-21T06:47:00;14.50;98.80
1447;DHT22;717;51.522;7.266;2022-09-21T06:49:27;14.50;98.90
1447;DHT22;717;51.522;7.266;2022-09-21T06:51:53;14.50;98.90
1447;DHT22;717;51.522;7.266;2022-09-21T06:54:20;14.60;99.10
1447;DHT22;717;51.522;7.266;2022-09-21T06:56:49;14.60;99.10
1447;DHT22;717;51.522;7.266;2022-09-21T06:59:16;14.60;99.20
1447;DHT22;717;51.522;7.266;2022-09-21T07:01:43;14.60;99.30
1447;DHT22;717;51.522;7.266;2022-09-21T07:04:10;14.70;99.70
1447;DHT22;717;51.522;7.266;2022-09-21T07:06:36;14.70;99.50
1447;DHT22;717;51.522;7.266;2022-09-21T07:09:03;14.70;99.60
1447;DHT22;717;51.522;7.266;2022-09-21T07:11:30;14.80;99.70
1447;DHT22;717;51.522;7.266;2022-09-21T07:13:58;14.80;99.80
1447;DHT22;717;51.522;7.266;2022-09-21T07:16:25;14.80;99.80
1447;DHT22;717;51.522;7.266;2022-09-21T07:18:52;14.80;99.90
1447;DHT22;717;51.522;7.266;2022-09-21T07:21:19;14.90;99.90
1447;DHT22;717;51.522;7.266;2022-09-21T07:23:46;14.90;99.90
1447;DHT22;717;51.522;7.266;2022-09-21T07:26:13;14.90;99.90
1447;DHT22;717;51.522;7.266;2022-09-21T07:28:40;15.00;99.90
1447;DHT22;717;51.522;7.266;2022-09-21T07:31:09;15.00;99.90
1447;DHT22;717;51.522;7.266;2022-09-21T07:33:38;15.00;99.90
1447;DHT22;717;51.522;7.266;2022-09-21T07:36:06;15.10;99.90
1447;DHT22;717;51.522;7.266;2022-09-21T07:38:37;15.10;99.90
1447;DHT22;717;51.522;7.266;2022-09-21T07:41:05;15.10;99.90
1447;DHT22;717;51.522;7.266;2022-09-21T07:43:32;15.20;99.90
1447;DHT22;717;51.522;7.266;2022-09-21T07:45:59;15.20;99.90
1447;DHT22;717;51.522;7.266;2022-09-21T07:48:28;15.30;99.90
1447;DHT22;717;51.522;7.266;2022-09-21T07:51:00;15.30;99.90
1447;DHT22;717;51.522;7.266;2022-09-21T07:53:28;15.30;99.90
1447;DHT22;717;51.522;7.266;2022-09-21T07:56:00;15.40;99.90
1447;DHT22;717;51.522;7.266;2022-09-21T07:58:27;15.40;99.90
1447;DHT22;717;51.522;7.266;2022-09-21T08:01:11;15.40;99.90
1447;DHT22;717;51.522;7.266;2022-09-21T08:03:39;15.50;99.90
1447;DHT22;717;51.522;7.266;2022-09-21T08:06:06;15.50;99.90
1447;DHT22;717;51.522;7.266;2022-09-21T08:08:34;15.60;99.90
1447;DHT22;717;51.522;7.266;2022-09-21T08:11:02;15.60;99.90
1447;DHT22;717;51.522;7.266;2022-09-21T08:13:29;15.60;99.90
1447;DHT22;717;51.522;7.266;2022-09-21T08:15:57;15.70;99.90
1447;DHT22;717;51.522;7.266;2022-09-21T08:18:24;15.70;99.90
1447;DHT22;717;51.522;7.266;2022-09-21T08:20:56;15.70;99.90
1447;DHT22;717;51.522;7.266;2022-09-21T08:23:24;15.80;99.90
1447;DHT22;717;51.522;7.266;2022-09-21T08:25:57;15.80;99.90
1447;DHT22;717;51.522;7.266;2022-09-21T08:28:25;15.90;99.90
1447;DHT22;717;51.522;7.266;2022-09-21T08:30:52;15.90;99.90
1447;DHT22;717;51.522;7.266;2022-09-21T08:33:19;15.90;99.90
1447;DHT22;717;51.522;7.266;2022-09-21T08:35:51;15.90;99.90
1447;DHT22;717;51.522;7.266;2022-09-21T08:38:19;16.00;99.90
1447;DHT22;717;51.522;7.266;2022-09-21T08:40:47;16.00;99.90
1447;DHT22;717;51.522;7.266;2022-09-21T08:43:20;16.10;99.90
1447;DHT22;717;51.522;7.266;2022-09-21T08:45:49;16.10;99.90
1447;DHT22;717;51.522;7.266;2022-09-21T08:48:20;16.10;99.90
1447;DHT22;717;51.522;7.266;2022-09-21T08:50:50;16.20;99.90
1447;DHT22;717;51.522;7.266;2022-09-21T08:53:24;16.20;99.90
1447;DHT22;717;51.522;7.266;2022-09-21T08:55:54;16.30;99.90
1447;DHT22;717;51.522;7.266;2022-09-21T08:58:22;16.30;99.90
1447;DHT22;717;51.522;7.266;2022-09-21T09:00:58;16.40;99.90
1447;DHT22;717;51.522;7.266;2022-09-21T09:03:41;16.40;99.90
1447;DHT22;717;51.522;7.266;2022-09-21T09:06:17;16.40;99.90
1447;DHT22;717;51.522;7.266;2022-09-21T09:09:11;16.50;99.90
1447;DHT22;717;51.522;7.266;2022-09-21T09:11:49;16.60;99.90
1447;DHT22;717;51.522;7.266;2022-09-21T09:14:28;17.00;99.90
1447;DHT22;717;51.522;7.266;2022-09-21T09:17:22;17.30;99.80
1447;DHT22;717;51.522;7.266;2022-09-21T09:19:55;17.40;99.60
1447;DHT22;717;51.522;7.266;2022-09-21T09:22:28;17.30;99.50
1447;DHT22;717;51.522;7.266;2022-09-21T09:25:00;17.30;99.50
1447;DHT22;717;51.522;7.266;2022-09-21T09:27:32;17.30;99.50
1447;DHT22;717;51.522;7.266;2022-09-21T09:30:03;17.40;99.50
1447;DHT22;717;51.522;7.266;2022-09-21T09:32:34;17.30;99.40
1447;DHT22;717;51.522;7.266;2022-09-21T09:35:14;17.30;99.50
1447;DHT22;717;51.522;7.266;2022-09-21T09:37:44;17.30;99.50
1447;DHT22;717;51.522;7.266;2022-09-21T09:40:14;17.30;99.50
1447;DHT22;717;51.522;7.266;2022-09-21T09:42:50;17.30;99.50
1447;DHT22;717;51.522;7.266;2022-09-21T09:45:30;17.30;99.40
1447;DHT22;717;51.522;7.266;2022-09-21T09:48:13;17.40;99.30
1447;DHT22;717;51.522;7.266;2022-09-21T09:50:42;17.40;99.40
1447;DHT22;717;51.522;7.266;2022-09-21T09:53:11;17.40;99.40
1447;DHT22;717;51.522;7.266;2022-09-21T09:55:41;17.50;99.20
1447;DHT22;717;51.522;7.266;2022-09-21T09:58:17;17.50;99.10
1447;DHT22;717;51.522;7.266;2022-09-21T10:00:46;17.60;99.10
1447;DHT22;717;51.522;7.266;2022-09-21T10:03:18;17.60;99.20
1447;DHT22;717;51.522;7.266;2022-09-21T10:05:46;17.60;99.30
1447;DHT22;717;51.522;7.266;2022-09-21T10:08:38;17.70;99.30
1447;DHT22;717;51.522;7.266;2022-09-21T10:11:08;17.80;99.30
1447;DHT22;717;51.522;7.266;2022-09-21T10:13:37;17.80;99.10
1447;DHT22;717;51.522;7.266;2022-09-21T10:16:10;17.80;98.80
1447;DHT22;717;51.522;7.266;2022-09-21T10:18:39;17.80;98.90
1447;DHT22;717;51.522;7.266;2022-09-21T10:21:07;17.90;98.80
1447;DHT22;717;51.522;7.266;2022-09-21T10:23:36;17.90;98.60
1447;DHT22;717;51.522;7.266;2022-09-21T10:26:06;17.90;98.70
1447;DHT22;717;51.522;7.266;2022-09-21T10:28:35;18.00;98.30
1447;DHT22;717;51.522;7.266;2022-09-21T10:31:17;18.00;98.20
1447;DHT22;717;51.522;7.266;2022-09-21T10:33:49;18.10;98.20
1447;DHT22;717;51.522;7.266;2022-09-21T10:36:31;18.10;98.10
1447;DHT22;717;51.522;7.266;2022-09-21T10:39:19;18.10;98.00
1447;DHT22;717;51.522;7.266;2022-09-21T10:41:51;18.10;97.80
1447;DHT22;717;51.522;7.266;2022-09-21T10:44:22;18.20;97.80
1447;DHT22;717;51.522;7.266;2022-09-21T10:46:50;18.20;97.60
1447;DHT22;717;51.522;7.266;2022-09-21T10:49:21;18.20;97.50
1447;DHT22;717;51.522;7.266;2022-09-21T10:51:50;18.20;97.30
1447;DHT22;717;51.522;7.266;2022-09-21T10:54:22;18.20;97.10
1447;DHT22;717;51.522;7.266;2022-09-21T10:56:56;18.30;97.00
1447;DHT22;717;51.522;7.266;2022-09-21T10:59:27;18.30;96.80
1447;DHT22;717;51.522;7.266;2022-09-21T11:01:55;18.30;96.70
1447;DHT22;717;51.522;7.266;2022-09-21T11:04:38;18.40;96.80
1447;DHT22;717;51.522;7.266;2022-09-21T11:07:14;18.40;96.50
1447;DHT22;717;51.522;7.266;2022-09-21T11:09:46;18.40;96.40
1447;DHT22;717;51.522;7.266;2022-09-21T11:12:30;18.40;96.30
1447;DHT22;717;51.522;7.266;2022-09-21T11:15:09;18.50;96.50
1447;DHT22;717;51.522;7.266;2022-09-21T11:17:40;18.50;96.40
1447;DHT22;717;51.522;7.266;2022-09-21T11:20:21;18.50;96.40
1447;DHT22;717;51.522;7.266;2022-09-21T11:22:58;18.60;96.20
1447;DHT22;717;51.522;7.266;2022-09-21T11:25:39;18.60;96.10
1447;DHT22;717;51.522;7.266;2022-09-21T11:28:12;18.60;96.10
1447;DHT22;717;51.522;7.266;2022-09-21T11:31:07;18.60;96.20
1447;DHT22;717;51.522;7.266;2022-09-21T11:33:53;18.70;96.30
1447;DHT22;717;51.522;7.266;2022-09-21T11:36:28;18.70;96.10
1447;DHT22;717;51.522;7.266;2022-09-21T11:39:02;18.70;96.00
1447;DHT22;717;51.522;7.266;2022-09-21T11:41:43;18.70;95.90
1447;DHT22;717;51.522;7.266;2022-09-21T11:44:29;18.70;95.60
1447;DHT22;717;51.522;7.266;2022-09-21T11:47:16;18.80;95.50
1447;DHT22;717;51.522;7.266;2022-09-21T11:50:04;18.80;95.50
1447;DHT22;717;51.522;7.266;2022-09-21T11:52:44;18.80;95.70
1447;DHT22;717;51.522;7.266;2022-09-21T11:55:34;18.90;95.70
1447;DHT22;717;51.522;7.266;2022-09-21T11:58:08;18.90;95.60
1447;DHT22;717;51.522;7.266;2022-09-21T12:00:46;19.00;95.30
1447;DHT22;717;51.522;7.266;2022-09-21T12:03:46;19.10;95.10
1447;DHT22;717;51.522;7.266;2022-09-21T12:06:27;19.10;95.10
1447;DHT22;717;51.522;7.266;2022-09-21T12:09:26;19.10;95.00
1447;DHT22;717;51.522;7.266;2022-09-21T12:12:05;19.20;95.00
1447;DHT22;717;51.522;7.266;2022-09-21T12:14:41;19.30;94.90
1447;DHT22;717;51.522;7.266;2022-09-21T12:17:15;19.30;94.70
1447;DHT22;717;51.522;7.266;2022-09-21T12:19:51;19.30;94.40
1447;DHT22;717;51.522;7.266;2022-09-21T12:22:24;19.40;94.20
1447;DHT22;717;51.522;7.266;2022-09-21T12:24:54;19.50;94.40
1447;DHT22;717;51.522;7.266;2022-09-21T12:27:26;19.60;94.50
1447;DHT22;717;51.522;7.266;2022-09-21T12:29:56;19.60;94.20
1447;DHT22;717;51.522;7.266;2022-09-21T12:32:30;19.70;94.30
1447;DHT22;717;51.522;7.266;2022-09-21T12:35:03;19.80;94.30
1447;DHT22;717;51.522;7.266;2022-09-21T12:37:34;19.80;94.20
1447;DHT22;717;51.522;7.266;2022-09-21T12:40:19;19.90;94.00
1447;DHT22;717;51.522;7.266;2022-09-21T12:42:54;19.90;94.10
1447;DHT22;717;51.522;7.266;2022-09-21T12:45:26;19.90;94.20
1447;DHT22;717;51.522;7.266;2022-09-21T12:47:57;19.90;94.20
1447;DHT22;717;51.522;7.266;2022-09-21T12:50:33;20.00;94.20
1447;DHT22;717;51.522;7.266;2022-09-21T12:53:02;20.00;94.10
1447;DHT22;717;51.522;7.266;2022-09-21T12:55:39;20.10;93.90
1447;DHT22;717;51.522;7.266;2022-09-21T12:58:29;20.20;93.60
1447;DHT22;717;51.522;7.266;2022-09-21T13:01:07;20.20;93.30
1447;DHT22;717;51.522;7.266;2022-09-21T13:03:40;20.20;93.20
1447;DHT22;717;51.522;7.266;2022-09-21T13:06:28;20.20;93.20
1447;DHT22;717;51.522;7.266;2022-09-21T13:09:00;20.20;93.00
1447;DHT22;717;51.522;7.266;2022-09-21T13:11:30;20.30;92.80
1447;DHT22;717;51.522;7.266;2022-09-21T13:14:00;20.30;92.60
1447;DHT22;717;51.522;7.266;2022-09-21T13:16:29;20.30;92.10
1447;DHT22;717;51.522;7.266;2022-09-21T13:18:58;20.30;91.90
1447;DHT22;717;51.522;7.266;2022-09-21T13:21:29;20.30;91.90
1447;DHT22;717;51.522;7.266;2022-09-21T13:23:58;20.40;91.60
1447;DHT22;717;51.522;7.266;2022-09-21T13:26:31;20.40;91.90
1447;DHT22;717;51.522;7.266;2022-09-21T13:29:26;20.40;92.00
1447;DHT22;717;51.522;7.266;2022-09-21T13:31:58;20.50;92.00
1447;DHT22;717;51.522;7.266;2022-09-21T13:34:30;20.60;92.20
1447;DHT22;717;51.522;7.266;2022-09-21T13:37:28;20.60;92.40
1447;DHT22;717;51.522;7.266;2022-09-21T13:43:19;20.70;91.90
1447;DHT22;717;51.522;7.266;2022-09-21T13:45:54;20.80;91.40
1447;DHT22;717;51.522;7.266;2022-09-21T13:48:25;20.90;91.40
1447;DHT22;717;51.522;7.266;2022-09-21T13:51:00;20.90;91.50
1447;DHT22;717;51.522;7.266;2022-09-21T13:53:36;21.00;91.40
1447;DHT22;717;51.522;7.266;2022-09-21T13:56:16;21.00;91.10
1447;DHT22;717;51.522;7.266;2022-09-21T13:58:45;21.10;91.30
1447;DHT22;717;51.522;7.266;2022-09-21T14:01:16;21.10;91.10
1447;DHT22;717;51.522;7.266;2022-09-21T14:03:47;21.20;90.60
1447;DHT22;717;51.522;7.266;2022-09-21T14:06:17;21.20;90.80
1447;DHT22;717;51.522;7.266;2022-09-21T14:08:51;21.20;90.40
1447;DHT22;717;51.522;7.266;2022-09-21T14:11:26;21.20;90.40
1447;DHT22;717;51.522;7.266;2022-09-21T14:14:07;21.20;90.30
1447;DHT22;717;51.522;7.266;2022-09-21T14:16:53;21.20;90.30
1447;DHT22;717;51.522;7.266;2022-09-21T14:22:40;21.20;90.20
1447;DHT22;717;51.522;7.266;2022-09-21T14:25:29;21.30;89.90
1447;DHT22;717;51.522;7.266;2022-09-21T14:28:13;21.30;90.00
1447;DHT22;717;51.522;7.266;2022-09-21T14:30:48;21.30;89.80
1447;DHT22;717;51.522;7.266;2022-09-21T14:33:26;21.30;89.20
1447;DHT22;717;51.522;7.266;2022-09-21T14:35:55;21.30;89.10
1447;DHT22;717;51.522;7.266;2022-09-21T14:38:26;21.30;89.30
1447;DHT22;717;51.522;7.266;2022-09-21T14:40:59;21.30;89.00
1447;DHT22;717;51.522;7.266;2022-09-21T14:43:29;21.30;89.50
1447;DHT22;717;51.522;7.266;2022-09-21T14:46:18;21.30;89.90
1447;DHT22;717;51.522;7.266;2022-09-21T14:48:54;21.20;90.00
1447;DHT22;717;51.522;7.266;2022-09-21T14:51:31;21.20;90.10
1447;DHT22;717;51.522;7.266;2022-09-21T14:54:22;21.20;90.10
1447;DHT22;717;51.522;7.266;2022-09-21T14:57:08;21.10;90.30
1447;DHT22;717;51.522;7.266;2022-09-21T14:59:57;21.10;90.60
1447;DHT22;717;51.522;7.266;2022-09-21T15:02:31;21.00;91.10
1447;DHT22;717;51.522;7.266;2022-09-21T15:05:14;21.00;91.40
1447;DHT22;717;51.522;7.266;2022-09-21T15:07:47;21.00;91.80
1447;DHT22;717;51.522;7.266;2022-09-21T15:10:36;20.90;92.00
1447;DHT22;717;51.522;7.266;2022-09-21T15:16:48;20.80;92.10
1447;DHT22;717;51.522;7.266;2022-09-21T15:19:23;20.80;92.00
1447;DHT22;717;51.522;7.266;2022-09-21T15:21:51;20.80;91.90
1447;DHT22;717;51.522;7.266;2022-09-21T15:24:22;20.70;92.00
1447;DHT22;717;51.522;7.266;2022-09-21T15:26:52;20.70;92.20
1447;DHT22;717;51.522;7.266;2022-09-21T15:29:23;20.70;92.20
1447;DHT22;717;51.522;7.266;2022-09-21T15:31:53;20.60;92.00
1447;DHT22;717;51.522;7.266;2022-09-21T15:34:21;20.60;92.00
1447;DHT22;717;51.522;7.266;2022-09-21T15:36:49;20.50;92.00
1447;DHT22;717;51.522;7.266;2022-09-21T15:39:27;20.50;92.20
1447;DHT22;717;51.522;7.266;2022-09-21T15:42:15;20.50;92.40
1447;DHT22;717;51.522;7.266;2022-09-21T15:44:45;20.50;92.70
1447;DHT22;717;51.522;7.266;2022-09-21T15:47:17;20.40;92.80
1447;DHT22;717;51.522;7.266;2022-09-21T15:49:45;20.40;92.90
1447;DHT22;717;51.522;7.266;2022-09-21T15:52:21;20.30;92.90
1447;DHT22;717;51.522;7.266;2022-09-21T15:54:54;20.30;92.90
1447;DHT22;717;51.522;7.266;2022-09-21T15:57:29;20.30;93.00
1447;DHT22;717;51.522;7.266;2022-09-21T15:59:58;20.30;93.10
1447;DHT22;717;51.522;7.266;2022-09-21T16:02:32;20.30;93.00
1447;DHT22;717;51.522;7.266;2022-09-21T16:05:00;20.30;92.70
1447;DHT22;717;51.522;7.266;2022-09-21T16:07:30;20.30;92.50
1447;DHT22;717;51.522;7.266;2022-09-21T16:09:58;20.30;92.50
1447;DHT22;717;51.522;7.266;2022-09-21T16:12:37;20.30;92.50
1447;DHT22;717;51.522;7.266;2022-09-21T16:15:17;20.30;92.50
1447;DHT22;717;51.522;7.266;2022-09-21T16:17:58;20.20;92.60
1447;DHT22;717;51.522;7.266;2022-09-21T16:20:42;20.20;92.80
1447;DHT22;717;51.522;7.266;2022-09-21T16:23:13;20.20;93.00
1447;DHT22;717;51.522;7.266;2022-09-21T16:25:41;20.20;93.20
1447;DHT22;717;51.522;7.266;2022-09-21T16:28:33;20.20;93.40
1447;DHT22;717;51.522;7.266;2022-09-21T16:31:29;20.20;93.60
1447;DHT22;717;51.522;7.266;2022-09-21T16:33:59;20.20;93.80
1447;DHT22;717;51.522;7.266;2022-09-21T16:36:40;20.20;93.80
1447;DHT22;717;51.522;7.266;2022-09-21T16:39:14;20.20;94.00
1447;DHT22;717;51.522;7.266;2022-09-21T16:41:48;20.20;94.10
1447;DHT22;717;51.522;7.266;2022-09-21T16:44:16;20.10;94.20
1447;DHT22;717;51.522;7.266;2022-09-21T16:46:50;20.10;94.30
1447;DHT22;717;51.522;7.266;2022-09-21T16:49:20;20.10;94.50
1447;DHT22;717;51.522;7.266;2022-09-21T16:51:48;20.10;94.60
1447;DHT22;717;51.522;7.266;2022-09-21T16:54:16;20.00;94.60
1447;DHT22;717;51.522;7.266;2022-09-21T16:56:45;20.00;94.70
1447;DHT22;717;51.522;7.266;2022-09-21T16:59:13;20.00;94.70
1447;DHT22;717;51.522;7.266;2022-09-21T17:01:44;19.90;94.70